sensor_id;sensor_type;location;lat;lon;timestamp;P1;durP1;ratioP1;P2;durP2;ratioP2
34060;SDS011;20336;-33.424;-70.638;2023-01-13T00:02:15;13.93;;;2.03;;
34060;SDS011;20336;-33.424;-70.638;2023-01-13T00:04:42;18.95;;;2.35;;
34060;SDS011;20336;-33.424;-70.638;2023-01-13T00:07:09;15.23;;;1.77;;
34060;SDS011;20336;-33.424;-70.638;2023-01-13T00:09:36;9.05;;;1.58;;
34060;SDS011;20336;-33.424;-70.638;2023-01-13T00:12:03;8.10;;;1.80;;
34060;SDS011;20336;-33.424;-70.638;2023-01-13T00:14:34;12.70;;;1.63;;
34060;SDS011;20336;-33.424;-70.638;2023-01-13T00:17:01;7.07;;;1.83;;
34060;SDS011;20336;-33.424;-70.638;2023-01-13T00:19:28;8.25;;;1.77;;
34060;SDS011;20336;-33.424;-70.638;2023-01-13T00:21:55;5.03;;;1.63;;
34060;SDS011;20336;-33.424;-70.638;2023-01-13T00:24:22;11.35;;;1.70;;
34060;SDS011;20336;-33.424;-70.638;2023-01-13T00:26:49;12.02;;;1.73;;
34060;SDS011;20336;-33.424;-70.638;2023-01-13T00:29:17;9.25;;;1.60;;
34060;SDS011;20336;-33.424;-70.638;2023-01-13T00:31:44;6.63;;;1.70;;
34060;SDS011;20336;-33.424;-70.638;2023-01-13T00:34:11;9.38;;;2.20;;
34060;SDS011;20336;-33.424;-70.638;2023-01-13T00:36:38;5.78;;;1.80;;
34060;SDS011;20336;-33.424;-70.638;2023-01-13T00:39:05;8.75;;;1.60;;
34060;SDS011;20336;-33.424;-70.638;2023-01-13T00:41:32;8.73;;;1.55;;
34060;SDS011;20336;-33.424;-70.638;2023-01-13T00:44:18;6.88;;;1.83;;
34060;SDS011;20336;-33.424;-70.638;2023-01-13T00:46:45;4.82;;;2.20;;
34060;SDS011;20336;-33.424;-70.638;2023-01-13T00:49:12;8.80;;;2.00;;
34060;SDS011;20336;-33.424;-70.638;2023-01-13T00:51:39;8.27;;;1.80;;
34060;SDS011;20336;-33.424;-70.638;2023-01-13T00:54:08;7.63;;;1.60;;
34060;SDS011;20336;-33.424;-70.638;2023-01-13T00:56:35;11.32;;;2.17;;
34060;SDS011;20336;-33.424;-70.638;2023-01-13T00:59:02;10.55;;;1.90;;
34060;SDS011;20336;-33.424;-70.638;2023-01-13T01:01:29;7.78;;;1.90;;
34060;SDS011;20336;-33.424;-70.638;2023-01-13T01:03:56;9.85;;;3.10;;
34060;SDS011;20336;-33.424;-70.638;2023-01-13T01:06:24;6.97;;;1.95;;
34060;SDS011;20336;-33.424;-70.638;2023-01-13T01:08:51;12.20;;;1.73;;
34060;SDS011;20336;-33.424;-70.638;2023-01-13T01:11:22;5.82;;;1.77;;
34060;SDS011;20336;-33.424;-70.638;2023-01-13T01:13:50;7.07;;;1.65;;
34060;SDS011;20336;-33.424;-70.638;2023-01-13T01:16:18;8.30;;;2.25;;
34060;SDS011;20336;-33.424;-70.638;2023-01-13T01:18:46;5.18;;;1.70;;
34060;SDS011;20336;-33.424;-70.638;2023-01-13T01:21:13;6.05;;;1.58;;
34060;SDS011;20336;-33.424;-70.638;2023-01-13T01:23:40;6.70;;;1.95;;
34060;SDS011;20336;-33.424;-70.638;2023-01-13T01:26:12;9.38;;;1.77;;
34060;SDS011;20336;-33.424;-70.638;2023-01-13T01:28:40;9.20;;;2.17;;
34060;SDS011;20336;-33.424;-70.638;2023-01-13T01:31:16;6.60;;;1.77;;
34060;SDS011;20336;-33.424;-70.638;2023-01-13T01:33:44;3.53;;;1.48;;
34060;SDS011;20336;-33.424;-70.638;2023-01-13T01:36:12;7.15;;;1.70;;
34060;SDS011;20336;-33.424;-70.638;2023-01-13T01:38:39;7.18;;;2.17;;
34060;SDS011;20336;-33.424;-70.638;2023-01-13T01:41:06;7.68;;;1.80;;
34060;SDS011;20336;-33.424;-70.638;2023-01-13T01:43:47;9.25;;;1.98;;
34060;SDS011;20336;-33.424;-70.638;2023-01-13T01:46:27;8.35;;;1.63;;
34060;SDS011;20336;-33.424;-70.638;2023-01-13T01:48:55;8.43;;;1.67;;
34060;SDS011;20336;-33.424;-70.638;2023-01-13T01:51:23;8.48;;;1.55;;
34060;SDS011;20336;-33.424;-70.638;2023-01-13T01:53:51;7.07;;;1.60;;
34060;SDS011;20336;-33.424;-70.638;2023-01-13T01:56:19;8.18;;;1.70;;
34060;SDS011;20336;-33.424;-70.638;2023-01-13T01:58:47;6.40;;;1.75;;
34060;SDS011;20336;-33.424;-70.638;2023-01-13T02:01:15;7.57;;;1.63;;
34060;SDS011;20336;-33.424;-70.638;2023-01-13T02:03:44;6.25;;;1.90;;
34060;SDS011;20336;-33.424;-70.638;2023-01-13T02:06:12;8.88;;;1.77;;
34060;SDS011;20336;-33.424;-70.638;2023-01-13T02:08:40;5.32;;;1.80;;
34060;SDS011;20336;-33.424;-70.638;2023-01-13T02:11:24;6.22;;;2.00;;
34060;SDS011;20336;-33.424;-70.638;2023-01-13T02:14:11;13.25;;;2.92;;
34060;SDS011;20336;-33.424;-70.638;2023-01-13T02:16:39;25.17;;;4.63;;
34060;SDS011;20336;-33.424;-70.638;2023-01-13T02:19:19;23.05;;;5.65;;
34060;SDS011;20336;-33.424;-70.638;2023-01-13T02:27:30;9.80;;;1.85;;
34060;SDS011;20336;-33.424;-70.638;2023-01-13T02:38:03;11.98;;;3.95;;
34060;SDS011;20336;-33.424;-70.638;2023-01-13T02:40:45;10.63;;;3.97;;
34060;SDS011;20336;-33.424;-70.638;2023-01-13T02:43:16;7.78;;;2.95;;
34060;SDS011;20336;-33.424;-70.638;2023-01-13T02:46:24;14.63;;;2.28;;
34060;SDS011;20336;-33.424;-70.638;2023-01-13T02:48:49;15.52;;;5.20;;
34060;SDS011;20336;-33.424;-70.638;2023-01-13T02:51:18;11.77;;;4.40;;
34060;SDS011;20336;-33.424;-70.638;2023-01-13T02:53:48;6.95;;;2.22;;
34060;SDS011;20336;-33.424;-70.638;2023-01-13T02:56:17;9.25;;;2.45;;
34060;SDS011;20336;-33.424;-70.638;2023-01-13T02:58:46;12.52;;;5.00;;
34060;SDS011;20336;-33.424;-70.638;2023-01-13T03:01:13;14.38;;;2.88;;
34060;SDS011;20336;-33.424;-70.638;2023-01-13T03:03:40;3.53;;;1.30;;
34060;SDS011;20336;-33.424;-70.638;2023-01-13T03:11:18;8.38;;;3.38;;
34060;SDS011;20336;-33.424;-70.638;2023-01-13T03:16:45;9.15;;;3.85;;
34060;SDS011;20336;-33.424;-70.638;2023-01-13T03:21:54;7.07;;;2.00;;
34060;SDS011;20336;-33.424;-70.638;2023-01-13T03:24:27;8.05;;;2.42;;
34060;SDS011;20336;-33.424;-70.638;2023-01-13T03:32:18;10.50;;;2.83;;
34060;SDS011;20336;-33.424;-70.638;2023-01-13T03:34:52;14.68;;;2.58;;
34060;SDS011;20336;-33.424;-70.638;2023-01-13T03:37:22;11.68;;;3.53;;
34060;SDS011;20336;-33.424;-70.638;2023-01-13T03:39:59;5.93;;;1.77;;
34060;SDS011;20336;-33.424;-70.638;2023-01-13T03:42:29;8.90;;;2.63;;
34060;SDS011;20336;-33.424;-70.638;2023-01-13T03:45:13;7.50;;;2.47;;
34060;SDS011;20336;-33.424;-70.638;2023-01-13T03:52:48;4.95;;;1.88;;
34060;SDS011;20336;-33.424;-70.638;2023-01-13T03:55:17;6.47;;;1.98;;
34060;SDS011;20336;-33.424;-70.638;2023-01-13T04:00:14;7.53;;;2.00;;
34060;SDS011;20336;-33.424;-70.638;2023-01-13T04:02:44;5.90;;;2.30;;
34060;SDS011;20336;-33.424;-70.638;2023-01-13T04:05:12;11.82;;;3.55;;
34060;SDS011;20336;-33.424;-70.638;2023-01-13T04:07:48;9.18;;;2.40;;
34060;SDS011;20336;-33.424;-70.638;2023-01-13T04:10:17;5.93;;;1.90;;
34060;SDS011;20336;-33.424;-70.638;2023-01-13T04:12:47;6.50;;;2.28;;
34060;SDS011;20336;-33.424;-70.638;2023-01-13T04:15:25;13.57;;;3.58;;
34060;SDS011;20336;-33.424;-70.638;2023-01-13T04:17:52;11.48;;;2.25;;
34060;SDS011;20336;-33.424;-70.638;2023-01-13T04:20:19;9.45;;;3.80;;
34060;SDS011;20336;-33.424;-70.638;2023-01-13T04:22:46;7.68;;;2.03;;
34060;SDS011;20336;-33.424;-70.638;2023-01-13T04:25:13;6.65;;;2.60;;
34060;SDS011;20336;-33.424;-70.638;2023-01-13T04:27:40;7.75;;;2.60;;
34060;SDS011;20336;-33.424;-70.638;2023-01-13T04:30:07;7.88;;;1.90;;
34060;SDS011;20336;-33.424;-70.638;2023-01-13T04:32:34;7.68;;;1.80;;
34060;SDS011;20336;-33.424;-70.638;2023-01-13T04:35:02;3.72;;;1.67;;
34060;SDS011;20336;-33.424;-70.638;2023-01-13T04:37:29;6.28;;;2.22;;
34060;SDS011;20336;-33.424;-70.638;2023-01-13T04:39:56;9.30;;;2.15;;
34060;SDS011;20336;-33.424;-70.638;2023-01-13T04:42:22;6.55;;;2.28;;
34060;SDS011;20336;-33.424;-70.638;2023-01-13T04:44:49;6.43;;;2.42;;
34060;SDS011;20336;-33.424;-70.638;2023-01-13T04:47:16;6.13;;;2.38;;
34060;SDS011;20336;-33.424;-70.638;2023-01-13T04:49:43;5.65;;;1.75;;
34060;SDS011;20336;-33.424;-70.638;2023-01-13T04:52:10;3.10;;;1.30;;
34060;SDS011;20336;-33.424;-70.638;2023-01-13T04:54:37;3.92;;;1.35;;
34060;SDS011;20336;-33.424;-70.638;2023-01-13T04:57:04;8.13;;;2.03;;
34060;SDS011;20336;-33.424;-70.638;2023-01-13T04:59:31;6.07;;;1.50;;
34060;SDS011;20336;-33.424;-70.638;2023-01-13T05:01:58;3.72;;;1.40;;
34060;SDS011;20336;-33.424;-70.638;2023-01-13T05:04:25;5.78;;;1.08;;
34060;SDS011;20336;-33.424;-70.638;2023-01-13T05:06:53;3.60;;;1.00;;
34060;SDS011;20336;-33.424;-70.638;2023-01-13T05:09:20;5.50;;;1.58;;
34060;SDS011;20336;-33.424;-70.638;2023-01-13T05:11:47;5.55;;;1.10;;
34060;SDS011;20336;-33.424;-70.638;2023-01-13T05:14:32;7.47;;;1.20;;
34060;SDS011;20336;-33.424;-70.638;2023-01-13T05:17:22;3.75;;;1.02;;
34060;SDS011;20336;-33.424;-70.638;2023-01-13T05:19:49;7.65;;;1.10;;
34060;SDS011;20336;-33.424;-70.638;2023-01-13T05:22:16;7.05;;;1.50;;
34060;SDS011;20336;-33.424;-70.638;2023-01-13T05:25:01;4.03;;;1.40;;
34060;SDS011;20336;-33.424;-70.638;2023-01-13T05:27:46;6.22;;;1.13;;
34060;SDS011;20336;-33.424;-70.638;2023-01-13T05:30:13;5.35;;;1.33;;
34060;SDS011;20336;-33.424;-70.638;2023-01-13T05:32:40;4.07;;;1.60;;
34060;SDS011;20336;-33.424;-70.638;2023-01-13T05:35:07;4.75;;;1.10;;
34060;SDS011;20336;-33.424;-70.638;2023-01-13T05:37:34;4.28;;;1.33;;
34060;SDS011;20336;-33.424;-70.638;2023-01-13T05:40:01;3.00;;;1.10;;
34060;SDS011;20336;-33.424;-70.638;2023-01-13T05:42:46;3.63;;;1.27;;
34060;SDS011;20336;-33.424;-70.638;2023-01-13T05:45:39;5.20;;;1.35;;
34060;SDS011;20336;-33.424;-70.638;2023-01-13T05:48:06;3.63;;;1.30;;
34060;SDS011;20336;-33.424;-70.638;2023-01-13T05:50:33;6.00;;;1.40;;
34060;SDS011;20336;-33.424;-70.638;2023-01-13T05:53:00;5.10;;;1.10;;
34060;SDS011;20336;-33.424;-70.638;2023-01-13T05:55:27;4.07;;;1.40;;
34060;SDS011;20336;-33.424;-70.638;2023-01-13T05:57:53;8.33;;;1.63;;
34060;SDS011;20336;-33.424;-70.638;2023-01-13T06:00:20;7.67;;;1.40;;
34060;SDS011;20336;-33.424;-70.638;2023-01-13T06:02:47;6.27;;;1.40;;
34060;SDS011;20336;-33.424;-70.638;2023-01-13T06:05:14;7.00;;;1.60;;
34060;SDS011;20336;-33.424;-70.638;2023-01-13T06:07:41;6.67;;;1.60;;
34060;SDS011;20336;-33.424;-70.638;2023-01-13T06:10:08;5.30;;;1.90;;
34060;SDS011;20336;-33.424;-70.638;2023-01-13T06:12:35;6.13;;;1.40;;
34060;SDS011;20336;-33.424;-70.638;2023-01-13T06:15:02;9.70;;;1.70;;
34060;SDS011;20336;-33.424;-70.638;2023-01-13T06:17:29;6.35;;;1.60;;
34060;SDS011;20336;-33.424;-70.638;2023-01-13T06:19:56;7.13;;;1.53;;
34060;SDS011;20336;-33.424;-70.638;2023-01-13T06:22:27;5.10;;;1.50;;
34060;SDS011;20336;-33.424;-70.638;2023-01-13T06:24:57;7.83;;;1.80;;
34060;SDS011;20336;-33.424;-70.638;2023-01-13T06:27:24;7.87;;;1.80;;
34060;SDS011;20336;-33.424;-70.638;2023-01-13T06:29:51;7.60;;;1.60;;
34060;SDS011;20336;-33.424;-70.638;2023-01-13T06:32:19;5.50;;;1.90;;
34060;SDS011;20336;-33.424;-70.638;2023-01-13T06:34:48;7.77;;;1.63;;
34060;SDS011;20336;-33.424;-70.638;2023-01-13T06:37:16;6.50;;;2.10;;
34060;SDS011;20336;-33.424;-70.638;2023-01-13T06:39:47;4.93;;;1.97;;
34060;SDS011;20336;-33.424;-70.638;2023-01-13T06:42:14;5.53;;;2.00;;
34060;SDS011;20336;-33.424;-70.638;2023-01-13T06:45:00;5.03;;;1.50;;
34060;SDS011;20336;-33.424;-70.638;2023-01-13T06:47:27;4.40;;;1.50;;
34060;SDS011;20336;-33.424;-70.638;2023-01-13T06:49:54;8.77;;;1.80;;
34060;SDS011;20336;-33.424;-70.638;2023-01-13T06:52:21;4.47;;;1.70;;
34060;SDS011;20336;-33.424;-70.638;2023-01-13T06:54:47;9.80;;;1.90;;
34060;SDS011;20336;-33.424;-70.638;2023-01-13T06:57:14;5.77;;;1.60;;
34060;SDS011;20336;-33.424;-70.638;2023-01-13T06:59:41;7.93;;;1.73;;
34060;SDS011;20336;-33.424;-70.638;2023-01-13T07:02:08;8.03;;;1.67;;
34060;SDS011;20336;-33.424;-70.638;2023-01-13T07:04:35;4.47;;;1.43;;
34060;SDS011;20336;-33.424;-70.638;2023-01-13T07:07:02;9.13;;;1.70;;
34060;SDS011;20336;-33.424;-70.638;2023-01-13T07:09:29;7.53;;;1.60;;
34060;SDS011;20336;-33.424;-70.638;2023-01-13T07:11:56;5.90;;;1.90;;
34060;SDS011;20336;-33.424;-70.638;2023-01-13T07:14:23;4.57;;;1.80;;
34060;SDS011;20336;-33.424;-70.638;2023-01-13T07:17:08;7.87;;;1.73;;
34060;SDS011;20336;-33.424;-70.638;2023-01-13T07:19:35;5.90;;;1.53;;
34060;SDS011;20336;-33.424;-70.638;2023-01-13T07:22:02;10.57;;;1.80;;
34060;SDS011;20336;-33.424;-70.638;2023-01-13T07:24:29;8.07;;;1.70;;
34060;SDS011;20336;-33.424;-70.638;2023-01-13T07:26:56;8.23;;;1.70;;
34060;SDS011;20336;-33.424;-70.638;2023-01-13T07:29:23;6.70;;;1.50;;
34060;SDS011;20336;-33.424;-70.638;2023-01-13T07:31:50;6.13;;;1.67;;
34060;SDS011;20336;-33.424;-70.638;2023-01-13T07:34:17;7.87;;;1.87;;
34060;SDS011;20336;-33.424;-70.638;2023-01-13T07:36:44;6.67;;;1.90;;
34060;SDS011;20336;-33.424;-70.638;2023-01-13T07:39:11;9.10;;;1.70;;
34060;SDS011;20336;-33.424;-70.638;2023-01-13T07:41:37;10.90;;;2.00;;
34060;SDS011;20336;-33.424;-70.638;2023-01-13T07:44:22;4.07;;;1.30;;
34060;SDS011;20336;-33.424;-70.638;2023-01-13T07:46:49;7.40;;;1.70;;
34060;SDS011;20336;-33.424;-70.638;2023-01-13T07:49:16;5.67;;;1.60;;
34060;SDS011;20336;-33.424;-70.638;2023-01-13T07:51:43;5.93;;;2.17;;
34060;SDS011;20336;-33.424;-70.638;2023-01-13T07:54:10;6.73;;;1.83;;
34060;SDS011;20336;-33.424;-70.638;2023-01-13T07:56:37;6.40;;;1.90;;
34060;SDS011;20336;-33.424;-70.638;2023-01-13T07:59:04;6.97;;;2.00;;
34060;SDS011;20336;-33.424;-70.638;2023-01-13T08:01:31;5.17;;;1.90;;
34060;SDS011;20336;-33.424;-70.638;2023-01-13T08:03:58;8.47;;;2.40;;
34060;SDS011;20336;-33.424;-70.638;2023-01-13T08:06:25;4.17;;;2.20;;
34060;SDS011;20336;-33.424;-70.638;2023-01-13T08:08:52;6.90;;;2.00;;
34060;SDS011;20336;-33.424;-70.638;2023-01-13T08:11:19;6.70;;;2.10;;
34060;SDS011;20336;-33.424;-70.638;2023-01-13T08:13:46;6.63;;;2.30;;
34060;SDS011;20336;-33.424;-70.638;2023-01-13T08:16:13;5.83;;;1.80;;
34060;SDS011;20336;-33.424;-70.638;2023-01-13T08:18:41;6.50;;;2.00;;
34060;SDS011;20336;-33.424;-70.638;2023-01-13T08:21:12;7.23;;;2.43;;
34060;SDS011;20336;-33.424;-70.638;2023-01-13T08:23:40;5.37;;;2.43;;
34060;SDS011;20336;-33.424;-70.638;2023-01-13T08:26:14;16.10;;;2.47;;
34060;SDS011;20336;-33.424;-70.638;2023-01-13T08:28:41;6.53;;;2.30;;
34060;SDS011;20336;-33.424;-70.638;2023-01-13T08:31:09;4.63;;;1.70;;
34060;SDS011;20336;-33.424;-70.638;2023-01-13T08:33:37;5.33;;;2.10;;
34060;SDS011;20336;-33.424;-70.638;2023-01-13T08:36:04;5.03;;;1.97;;
34060;SDS011;20336;-33.424;-70.638;2023-01-13T08:38:33;6.70;;;1.93;;
34060;SDS011;20336;-33.424;-70.638;2023-01-13T08:41:00;4.83;;;1.90;;
34060;SDS011;20336;-33.424;-70.638;2023-01-13T08:43:27;7.37;;;2.13;;
34060;SDS011;20336;-33.424;-70.638;2023-01-13T08:45:58;5.43;;;2.10;;
34060;SDS011;20336;-33.424;-70.638;2023-01-13T08:48:26;4.50;;;1.97;;
34060;SDS011;20336;-33.424;-70.638;2023-01-13T08:50:59;10.00;;;1.80;;
34060;SDS011;20336;-33.424;-70.638;2023-01-13T08:53:26;8.40;;;2.23;;
34060;SDS011;20336;-33.424;-70.638;2023-01-13T08:55:53;5.53;;;2.10;;
34060;SDS011;20336;-33.424;-70.638;2023-01-13T08:58:20;4.47;;;1.87;;
34060;SDS011;20336;-33.424;-70.638;2023-01-13T09:00:47;4.27;;;1.83;;
34060;SDS011;20336;-33.424;-70.638;2023-01-13T09:03:14;5.23;;;2.03;;
34060;SDS011;20336;-33.424;-70.638;2023-01-13T09:05:41;7.07;;;1.80;;
34060;SDS011;20336;-33.424;-70.638;2023-01-13T09:08:08;5.23;;;2.07;;
34060;SDS011;20336;-33.424;-70.638;2023-01-13T09:10:35;65.23;;;8.63;;
34060;SDS011;20336;-33.424;-70.638;2023-01-13T09:13:04;21.20;;;3.70;;
34060;SDS011;20336;-33.424;-70.638;2023-01-13T09:15:43;10.80;;;2.70;;
34060;SDS011;20336;-33.424;-70.638;2023-01-13T09:18:10;37.90;;;6.23;;
34060;SDS011;20336;-33.424;-70.638;2023-01-13T09:20:37;22.37;;;5.67;;
34060;SDS011;20336;-33.424;-70.638;2023-01-13T09:23:05;15.17;;;3.10;;
34060;SDS011;20336;-33.424;-70.638;2023-01-13T09:25:32;8.10;;;2.30;;
34060;SDS011;20336;-33.424;-70.638;2023-01-13T09:28:01;9.70;;;1.83;;
34060;SDS011;20336;-33.424;-70.638;2023-01-13T09:30:29;12.53;;;2.50;;
34060;SDS011;20336;-33.424;-70.638;2023-01-13T09:32:57;10.17;;;2.33;;
34060;SDS011;20336;-33.424;-70.638;2023-01-13T09:35:42;6.87;;;2.10;;
34060;SDS011;20336;-33.424;-70.638;2023-01-13T09:38:09;7.13;;;2.20;;
34060;SDS011;20336;-33.424;-70.638;2023-01-13T09:40:36;7.07;;;2.00;;
34060;SDS011;20336;-33.424;-70.638;2023-01-13T09:43:16;8.13;;;2.10;;
34060;SDS011;20336;-33.424;-70.638;2023-01-13T09:46:04;6.73;;;2.20;;
34060;SDS011;20336;-33.424;-70.638;2023-01-13T09:48:56;13.57;;;2.63;;
34060;SDS011;20336;-33.424;-70.638;2023-01-13T09:51:29;10.20;;;2.30;;
34060;SDS011;20336;-33.424;-70.638;2023-01-13T09:53:58;7.93;;;2.40;;
34060;SDS011;20336;-33.424;-70.638;2023-01-13T09:56:27;6.70;;;2.17;;
34060;SDS011;20336;-33.424;-70.638;2023-01-13T09:58:54;9.37;;;2.30;;
34060;SDS011;20336;-33.424;-70.638;2023-01-13T10:04:10;4.63;;;1.87;;
34060;SDS011;20336;-33.424;-70.638;2023-01-13T10:06:38;7.47;;;2.10;;
34060;SDS011;20336;-33.424;-70.638;2023-01-13T10:09:11;5.73;;;2.30;;
34060;SDS011;20336;-33.424;-70.638;2023-01-13T10:11:40;17.10;;;2.83;;
34060;SDS011;20336;-33.424;-70.638;2023-01-13T10:14:44;12.00;;;2.50;;
34060;SDS011;20336;-33.424;-70.638;2023-01-13T10:25:43;7.77;;;2.47;;
34060;SDS011;20336;-33.424;-70.638;2023-01-13T10:28:14;7.13;;;2.40;;
34060;SDS011;20336;-33.424;-70.638;2023-01-13T10:30:45;7.93;;;2.40;;
34060;SDS011;20336;-33.424;-70.638;2023-01-13T10:33:13;17.93;;;2.70;;
34060;SDS011;20336;-33.424;-70.638;2023-01-13T10:35:49;6.80;;;2.40;;
34060;SDS011;20336;-33.424;-70.638;2023-01-13T10:38:17;12.33;;;3.10;;
34060;SDS011;20336;-33.424;-70.638;2023-01-13T10:40:48;8.40;;;2.33;;
34060;SDS011;20336;-33.424;-70.638;2023-01-13T10:43:15;10.50;;;2.67;;
34060;SDS011;20336;-33.424;-70.638;2023-01-13T10:45:50;12.33;;;3.00;;
34060;SDS011;20336;-33.424;-70.638;2023-01-13T10:48:17;8.57;;;2.33;;
34060;SDS011;20336;-33.424;-70.638;2023-01-13T10:50:44;6.00;;;2.10;;
34060;SDS011;20336;-33.424;-70.638;2023-01-13T10:53:22;8.47;;;2.13;;
34060;SDS011;20336;-33.424;-70.638;2023-01-13T10:55:59;12.17;;;2.03;;
34060;SDS011;20336;-33.424;-70.638;2023-01-13T10:58:27;6.30;;;2.33;;
34060;SDS011;20336;-33.424;-70.638;2023-01-13T11:00:58;8.33;;;2.20;;
34060;SDS011;20336;-33.424;-70.638;2023-01-13T11:03:29;16.13;;;2.67;;
34060;SDS011;20336;-33.424;-70.638;2023-01-13T11:05:59;13.73;;;3.00;;
34060;SDS011;20336;-33.424;-70.638;2023-01-13T11:08:30;17.40;;;3.70;;
34060;SDS011;20336;-33.424;-70.638;2023-01-13T11:11:22;11.20;;;2.90;;
34060;SDS011;20336;-33.424;-70.638;2023-01-13T11:13:50;10.37;;;2.93;;
34060;SDS011;20336;-33.424;-70.638;2023-01-13T11:16:37;11.77;;;2.60;;
34060;SDS011;20336;-33.424;-70.638;2023-01-13T11:19:13;7.63;;;2.10;;
34060;SDS011;20336;-33.424;-70.638;2023-01-13T11:21:51;14.77;;;2.50;;
34060;SDS011;20336;-33.424;-70.638;2023-01-13T11:29:45;21.43;;;3.03;;
34060;SDS011;20336;-33.424;-70.638;2023-01-13T11:32:21;11.60;;;2.70;;
34060;SDS011;20336;-33.424;-70.638;2023-01-13T11:34:49;9.57;;;2.73;;
34060;SDS011;20336;-33.424;-70.638;2023-01-13T11:37:22;16.20;;;2.90;;
34060;SDS011;20336;-33.424;-70.638;2023-01-13T11:40:04;7.40;;;2.40;;
34060;SDS011;20336;-33.424;-70.638;2023-01-13T11:42:42;7.07;;;2.97;;
34060;SDS011;20336;-33.424;-70.638;2023-01-13T11:47:45;30.90;;;3.53;;
34060;SDS011;20336;-33.424;-70.638;2023-01-13T11:50:14;14.80;;;3.00;;
34060;SDS011;20336;-33.424;-70.638;2023-01-13T11:55:33;9.65;;;3.08;;
34060;SDS011;20336;-33.424;-70.638;2023-01-13T11:58:04;8.45;;;2.67;;
34060;SDS011;20336;-33.424;-70.638;2023-01-13T12:06:05;8.02;;;2.45;;
34060;SDS011;20336;-33.424;-70.638;2023-01-13T12:08:45;10.50;;;2.28;;
34060;SDS011;20336;-33.424;-70.638;2023-01-13T12:16:28;9.40;;;2.63;;
34060;SDS011;20336;-33.424;-70.638;2023-01-13T12:22:06;11.57;;;2.92;;
34060;SDS011;20336;-33.424;-70.638;2023-01-13T12:24:48;13.70;;;3.13;;
34060;SDS011;20336;-33.424;-70.638;2023-01-13T12:30:02;7.72;;;3.38;;
34060;SDS011;20336;-33.424;-70.638;2023-01-13T12:32:35;11.75;;;3.70;;
34060;SDS011;20336;-33.424;-70.638;2023-01-13T12:37:41;12.00;;;4.00;;
34060;SDS011;20336;-33.424;-70.638;2023-01-13T12:40:22;10.85;;;3.97;;
34060;SDS011;20336;-33.424;-70.638;2023-01-13T12:45:45;23.80;;;4.95;;
34060;SDS011;20336;-33.424;-70.638;2023-01-13T12:50:57;11.98;;;4.28;;
34060;SDS011;20336;-33.424;-70.638;2023-01-13T12:53:29;80.97;;;8.52;;
34060;SDS011;20336;-33.424;-70.638;2023-01-13T12:58:42;12.43;;;3.40;;
34060;SDS011;20336;-33.424;-70.638;2023-01-13T13:01:12;10.13;;;3.13;;
34060;SDS011;20336;-33.424;-70.638;2023-01-13T13:03:40;9.98;;;3.40;;
34060;SDS011;20336;-33.424;-70.638;2023-01-13T13:06:17;16.52;;;3.30;;
34060;SDS011;20336;-33.424;-70.638;2023-01-13T13:11:37;15.50;;;3.95;;
34060;SDS011;20336;-33.424;-70.638;2023-01-13T13:19:54;12.10;;;3.22;;
34060;SDS011;20336;-33.424;-70.638;2023-01-13T13:22:35;10.38;;;3.25;;
34060;SDS011;20336;-33.424;-70.638;2023-01-13T13:33:10;14.10;;;2.72;;
34060;SDS011;20336;-33.424;-70.638;2023-01-13T13:41:19;12.98;;;3.00;;
34060;SDS011;20336;-33.424;-70.638;2023-01-13T13:44:12;14.45;;;3.08;;
34060;SDS011;20336;-33.424;-70.638;2023-01-13T13:47:00;14.40;;;2.63;;
34060;SDS011;20336;-33.424;-70.638;2023-01-13T13:52:39;13.30;;;2.80;;
34060;SDS011;20336;-33.424;-70.638;2023-01-13T13:57:43;11.27;;;2.70;;
34060;SDS011;20336;-33.424;-70.638;2023-01-13T14:02:50;12.68;;;2.72;;
34060;SDS011;20336;-33.424;-70.638;2023-01-13T14:05:19;14.23;;;3.17;;
34060;SDS011;20336;-33.424;-70.638;2023-01-13T14:07:48;10.82;;;3.28;;
34060;SDS011;20336;-33.424;-70.638;2023-01-13T14:10:19;16.15;;;3.50;;
34060;SDS011;20336;-33.424;-70.638;2023-01-13T14:12:49;13.07;;;3.35;;
34060;SDS011;20336;-33.424;-70.638;2023-01-13T14:17:56;9.32;;;2.90;;
34060;SDS011;20336;-33.424;-70.638;2023-01-13T14:20:23;12.88;;;3.30;;
34060;SDS011;20336;-33.424;-70.638;2023-01-13T14:22:51;10.02;;;3.38;;
34060;SDS011;20336;-33.424;-70.638;2023-01-13T14:25:37;12.07;;;3.03;;
34060;SDS011;20336;-33.424;-70.638;2023-01-13T14:30:50;11.95;;;3.50;;
34060;SDS011;20336;-33.424;-70.638;2023-01-13T14:33:21;14.73;;;3.25;;
34060;SDS011;20336;-33.424;-70.638;2023-01-13T14:36:05;15.65;;;3.53;;
34060;SDS011;20336;-33.424;-70.638;2023-01-13T14:38:32;16.85;;;3.70;;
34060;SDS011;20336;-33.424;-70.638;2023-01-13T14:41:44;25.95;;;4.38;;
34060;SDS011;20336;-33.424;-70.638;2023-01-13T14:43:46;13.18;;;3.60;;
34060;SDS011;20336;-33.424;-70.638;2023-01-13T14:46:13;10.40;;;3.90;;
34060;SDS011;20336;-33.424;-70.638;2023-01-13T14:48:42;18.10;;;4.20;;
34060;SDS011;20336;-33.424;-70.638;2023-01-13T14:51:11;13.57;;;3.58;;
34060;SDS011;20336;-33.424;-70.638;2023-01-13T14:53:43;13.57;;;3.92;;
34060;SDS011;20336;-33.424;-70.638;2023-01-13T14:59:00;15.73;;;3.28;;
34060;SDS011;20336;-33.424;-70.638;2023-01-13T15:01:28;9.98;;;3.22;;
34060;SDS011;20336;-33.424;-70.638;2023-01-13T15:04:16;13.90;;;4.00;;
34060;SDS011;20336;-33.424;-70.638;2023-01-13T15:06:49;14.43;;;3.60;;
34060;SDS011;20336;-33.424;-70.638;2023-01-13T15:09:27;17.08;;;3.80;;
34060;SDS011;20336;-33.424;-70.638;2023-01-13T15:11:57;12.45;;;3.97;;
34060;SDS011;20336;-33.424;-70.638;2023-01-13T15:14:25;14.60;;;4.72;;
34060;SDS011;20336;-33.424;-70.638;2023-01-13T15:16:55;14.60;;;4.07;;
34060;SDS011;20336;-33.424;-70.638;2023-01-13T15:19:22;15.52;;;4.25;;
34060;SDS011;20336;-33.424;-70.638;2023-01-13T15:21:49;15.77;;;4.03;;
34060;SDS011;20336;-33.424;-70.638;2023-01-13T15:24:16;12.02;;;4.43;;
34060;SDS011;20336;-33.424;-70.638;2023-01-13T15:26:43;18.60;;;4.28;;
34060;SDS011;20336;-33.424;-70.638;2023-01-13T15:29:12;16.10;;;4.25;;
34060;SDS011;20336;-33.424;-70.638;2023-01-13T15:31:42;22.25;;;3.55;;
34060;SDS011;20336;-33.424;-70.638;2023-01-13T15:34:09;15.00;;;3.60;;
34060;SDS011;20336;-33.424;-70.638;2023-01-13T15:36:36;16.40;;;4.13;;
34060;SDS011;20336;-33.424;-70.638;2023-01-13T15:39:03;29.23;;;5.30;;
34060;SDS011;20336;-33.424;-70.638;2023-01-13T15:41:30;17.63;;;4.75;;
34060;SDS011;20336;-33.424;-70.638;2023-01-13T15:44:15;21.10;;;4.10;;
34060;SDS011;20336;-33.424;-70.638;2023-01-13T15:47:01;17.00;;;4.47;;
34060;SDS011;20336;-33.424;-70.638;2023-01-13T15:49:32;13.43;;;4.47;;
34060;SDS011;20336;-33.424;-70.638;2023-01-13T15:52:03;15.43;;;4.22;;
34060;SDS011;20336;-33.424;-70.638;2023-01-13T15:54:32;23.20;;;4.85;;
34060;SDS011;20336;-33.424;-70.638;2023-01-13T15:56:59;17.30;;;3.85;;
34060;SDS011;20336;-33.424;-70.638;2023-01-13T15:59:26;18.95;;;3.97;;
34060;SDS011;20336;-33.424;-70.638;2023-01-13T16:01:53;17.98;;;4.32;;
34060;SDS011;20336;-33.424;-70.638;2023-01-13T16:04:20;15.38;;;4.22;;
34060;SDS011;20336;-33.424;-70.638;2023-01-13T16:06:47;17.00;;;4.78;;
34060;SDS011;20336;-33.424;-70.638;2023-01-13T16:09:14;18.08;;;4.35;;
34060;SDS011;20336;-33.424;-70.638;2023-01-13T16:11:41;12.38;;;3.95;;
34060;SDS011;20336;-33.424;-70.638;2023-01-13T16:14:08;17.15;;;3.90;;
34060;SDS011;20336;-33.424;-70.638;2023-01-13T16:16:35;17.25;;;3.60;;
34060;SDS011;20336;-33.424;-70.638;2023-01-13T16:19:02;8.75;;;3.17;;
34060;SDS011;20336;-33.424;-70.638;2023-01-13T16:21:29;15.38;;;3.28;;
34060;SDS011;20336;-33.424;-70.638;2023-01-13T16:23:56;11.05;;;2.58;;
34060;SDS011;20336;-33.424;-70.638;2023-01-13T16:26:24;14.57;;;2.78;;
34060;SDS011;20336;-33.424;-70.638;2023-01-13T16:28:52;12.82;;;2.55;;